Time;durP1;ratioP1;P1;durP2;ratioP2;P2;SDS_P1;SDS_P2;PMS_P1;PMS_P2;Temp;Humidity;BMP_temperature;BMP_pressure;BME280_temperature;BME280_humidity;BME280_pressure;Samples;Min_cycle;Max_cycle;Signal;HPM_P1;HPM_P2
2023/09/20 00:01:41;;;;;;;3.45;0.43;;;;;;;16.16;100.00;98098.63;5050431;28;20200;-43
2023/09/20 00:04:08;;;;;;;0.28;0.17;;;;;;;16.16;100.00;98100.63;5051671;28;20045;-44
2023/09/20 00:06:36;;;;;;;0.75;0.20;;;;;;;16.14;100.00;98101.09;5046616;28;20056;-44
2023/09/20 00:09:04;;;;;;;1.20;0.13;;;;;;;16.14;100.00;98105.88;5051098;28;20049;-47
2023/09/20 00:11:30;;;;;;;0.47;0.10;;;;;;;16.14;100.00;98103.09;5050965;28;20549;-44
2023/09/20 00:13:58;;;;;;;2.90;0.10;;;;;;;16.14;100.00;98097.50;5050888;28;20128;-44
2023/09/20 00:16:25;;;;;;;2.38;0.10;;;;;;;16.14;100.00;98103.09;5050660;28;20055;-44
2023/09/20 00:18:52;;;;;;;1.33;0.20;;;;;;;16.15;100.00;98096.28;5049985;28;20159;-44
2023/09/20 00:21:19;;;;;;;0.43;0.20;;;;;;;16.16;100.00;98101.41;5050537;28;20482;-45
2023/09/20 00:23:46;;;;;;;0.43;0.38;;;;;;;16.17;100.00;98100.19;5050708;28;20147;-46
2023/09/20 00:26:13;;;;;;;0.10;0.10;;;;;;;16.21;100.00;98117.59;5033224;28;20041;-45
2023/09/20 00:28:42;;;;;;;1.58;0.20;;;;;;;16.25;100.00;98117.50;5051029;28;20053;-45
2023/09/20 00:31:09;;;;;;;1.42;0.13;;;;;;;16.27;100.00;98093.50;5051025;28;20514;-44
2023/09/20 00:33:36;;;;;;;1.00;0.10;;;;;;;16.27;100.00;98062.78;5050753;28;20080;-44
2023/09/20 00:36:03;;;;;;;0.93;0.57;;;;;;;16.30;100.00;98075.84;5050233;28;20060;-44
2023/09/20 00:38:30;;;;;;;0.40;0.15;;;;;;;16.32;100.00;98084.53;5050220;28;20048;-45
2023/09/20 00:40:57;;;;;;;0.82;0.82;;;;;;;16.35;100.00;98052.16;5049941;28;20040;-45
2023/09/20 00:43:24;;;;;;;1.02;0.10;;;;;;;16.35;100.00;98058.53;5050221;28;20049;-44
2023/09/20 00:45:51;;;;;;;0.10;0.10;;;;;;;16.37;100.00;98042.09;5050522;28;20041;-44
2023/09/20 00:48:19;;;;;;;1.58;0.10;;;;;;;16.38;100.00;98051.25;5050915;28;20083;-44
2023/09/20 00:50:48;;;;;;;1.55;0.10;;;;;;;16.39;100.00;98027.66;5050669;28;20485;-44
2023/09/20 00:53:15;;;;;;;1.55;0.22;;;;;;;16.38;100.00;97998.19;5050890;28;20033;-45
2023/09/20 00:55:42;;;;;;;1.10;0.10;;;;;;;16.38;100.00;98029.72;5051088;28;20057;-44
2023/09/20 00:58:15;;;;;;;2.55;0.70;;;;;;;16.38;100.00;98006.59;5050482;28;20414;-44
2023/09/20 01:00:45;;;;;;;0.60;0.13;;;;;;;16.38;100.00;98010.16;5049123;28;20052;-45
2023/09/20 01:03:18;;;;;;;1.05;0.35;;;;;;;16.41;100.00;98017.63;5050403;28;20059;-45
2023/09/20 01:05:46;;;;;;;0.63;0.10;;;;;;;16.42;100.00;98005.22;5051010;28;20402;-45
2023/09/20 01:08:17;;;;;;;0.20;0.08;;;;;;;16.45;100.00;98007.13;5050641;28;20045;-45
2023/09/20 01:10:45;;;;;;;0.75;0.15;;;;;;;16.49;100.00;98003.44;5050595;28;20045;-44
2023/09/20 01:13:15;;;;;;;1.45;0.80;;;;;;;16.53;100.00;97992.94;5055322;28;20049;-44
2023/09/20 01:15:44;;;;;;;0.10;0.10;;;;;;;16.54;100.00;97967.34;5049414;28;20049;-44
2023/09/20 01:18:12;;;;;;;0.52;0.10;;;;;;;16.58;100.00;97978.38;5050642;28;20426;-44
2023/09/20 01:20:40;;;;;;;0.80;0.10;;;;;;;16.61;100.00;97972.69;5048177;28;20056;-45
2023/09/20 01:23:08;;;;;;;0.00;0.00;;;;;;;16.64;100.00;97954.25;5050274;28;20049;-44
2023/09/20 01:25:41;;;;;;;0.45;0.10;;;;;;;16.66;100.00;97941.38;5050247;28;20490;-44
2023/09/20 01:28:09;;;;;;;0.45;0.03;;;;;;;16.68;100.00;97932.56;5050598;28;20037;-45
2023/09/20 01:30:38;;;;;;;0.30;0.20;;;;;;;16.68;100.00;97930.53;5045542;28;20045;-45
2023/09/20 01:33:07;;;;;;;0.15;0.10;;;;;;;16.68;100.00;97913.00;5036918;28;20052;-45
2023/09/20 01:35:36;;;;;;;0.10;0.00;;;;;;;16.69;100.00;97906.16;5050045;28;20479;-45
2023/09/20 01:38:06;;;;;;;0.43;0.22;;;;;;;16.69;100.00;97892.19;5049262;28;20102;-45
2023/09/20 01:40:34;;;;;;;0.00;0.00;;;;;;;16.70;100.00;97899.34;5049522;28;20106;-45
2023/09/20 01:43:06;;;;;;;0.22;0.10;;;;;;;16.71;100.00;97898.88;5050188;28;20045;-44
2023/09/20 01:45:37;;;;;;;;;;;;;;;16.72;100.00;97899.66;5050280;28;20063;-45
2023/09/20 01:48:08;;;;;;;0.45;0.10;;;;;;;16.70;100.00;97891.75;5051920;28;20401;-45
2023/09/20 01:50:36;;;;;;;0.10;0.00;;;;;;;16.72;100.00;97888.50;5035833;28;20144;-45
2023/09/20 01:53:08;;;;;;;0.17;0.00;;;;;;;16.73;100.00;97884.47;5054560;28;20103;-49
2023/09/20 01:55:44;;;;;;;0.80;0.10;;;;;;;16.75;100.00;97865.25;5053857;28;20041;-45
2023/09/20 01:58:14;;;;;;;0.65;0.22;;;;;;;16.78;100.00;97872.72;5053972;28;20052;-45
2023/09/20 02:00:42;;;;;;;0.82;0.05;;;;;;;16.79;100.00;97868.66;5051993;28;20098;-47
2023/09/20 02:03:14;;;;;;;1.48;0.10;;;;;;;16.80;100.00;97873.03;5052664;28;20069;-45
2023/09/20 02:05:42;;;;;;;0.75;0.20;;;;;;;16.81;100.00;97869.00;5053768;28;20052;-45
2023/09/20 02:08:09;;;;;;;3.08;0.45;;;;;;;16.84;100.00;97868.84;5053555;28;20495;-44
2023/09/20 02:10:38;;;;;;;1.08;0.20;;;;;;;16.86;100.00;97843.28;5053352;28;20560;-45
2023/09/20 02:13:06;;;;;;;1.17;0.15;;;;;;;16.88;100.00;97846.38;5053190;28;20106;-45
2023/09/20 02:15:34;;;;;;;1.52;0.10;;;;;;;16.88;100.00;97835.97;5053596;28;20086;-45
2023/09/20 02:18:05;;;;;;;0.52;0.00;;;;;;;16.87;100.00;97844.81;5053194;28;20072;-45
2023/09/20 02:20:39;;;;;;;0.13;0.13;;;;;;;16.85;100.00;97814.53;5053666;28;20583;-45
2023/09/20 02:23:12;;;;;;;0.82;0.10;;;;;;;16.83;100.00;97828.19;5053086;28;20040;-45
2023/09/20 02:25:41;;;;;;;1.25;0.15;;;;;;;16.84;100.00;97831.75;5051791;28;20049;-47
2023/09/20 02:28:08;;;;;;;0.28;0.00;;;;;;;16.83;100.00;97830.22;5040174;28;20052;-45
2023/09/20 02:30:36;;;;;;;0.13;0.00;;;;;;;16.83;100.00;97822.59;5053063;28;20056;-46
2023/09/20 02:33:08;;;;;;;0.40;0.10;;;;;;;16.84;100.00;97828.94;5053165;28;20048;-45
2023/09/20 02:35:36;;;;;;;0.40;0.08;;;;;;;16.86;100.00;97809.72;5052865;28;20053;-45
2023/09/20 02:38:05;;;;;;;0.63;0.63;;;;;;;16.85;100.00;97808.94;5053279;28;20465;-45
2023/09/20 02:40:35;;;;;;;0.40;0.10;;;;;;;16.84;100.00;97789.84;5052719;28;20045;-45
2023/09/20 02:43:04;;;;;;;0.00;0.00;;;;;;;16.83;100.00;97794.66;5052840;28;20045;-45
2023/09/20 02:45:34;;;;;;;1.02;0.10;;;;;;;16.83;100.00;97800.25;5052352;28;20613;-45
2023/09/20 02:48:04;;;;;;;1.58;0.10;;;;;;;16.82;100.00;97795.09;5052088;28;20384;-45
2023/09/20 02:50:31;;;;;;;0.55;0.20;;;;;;;16.81;100.00;97790.78;5052174;28;20063;-45
2023/09/20 02:52:58;;;;;;;1.13;0.10;;;;;;;16.80;100.00;97789.22;5052552;28;20053;-45
2023/09/20 02:55:27;;;;;;;0.10;0.00;;;;;;;16.79;100.00;97798.81;5052990;28;20041;-45
2023/09/20 02:57:54;;;;;;;0.20;0.00;;;;;;;16.80;100.00;97789.22;5034833;28;20112;-45
2023/09/20 03:03:08;;;;;;;0.25;0.00;;;;;;;16.75;100.00;97771.03;5066848;22;20141;-46
2023/09/20 03:05:36;;;;;;;1.20;0.20;;;;;;;16.76;100.00;97783.00;5069451;28;20064;-45
2023/09/20 03:08:11;;;;;;;0.43;0.10;;;;;;;16.73;100.00;97776.28;5067227;28;20566;-45
2023/09/20 03:10:41;;;;;;;1.05;0.20;;;;;;;16.71;100.00;97775.97;5072266;28;20055;-47
2023/09/20 03:13:16;;;;;;;1.25;0.15;;;;;;;16.69;100.00;97780.44;5053457;28;20493;-45
2023/09/20 03:15:44;;;;;;;0.55;0.10;;;;;;;16.66;100.00;97756.22;5072523;28;20059;-45
2023/09/20 03:18:13;;;;;;;0.90;0.10;;;;;;;16.65;100.00;97763.06;5072176;28;20037;-45
2023/09/20 03:20:43;;;;;;;1.75;0.10;;;;;;;16.61;100.00;97737.25;5062743;28;20072;-45
2023/09/20 03:23:11;;;;;;;1.52;0.13;;;;;;;16.61;100.00;97754.03;5064155;28;20041;-43
2023/09/20 03:25:38;;;;;;;1.73;0.35;;;;;;;16.59;100.00;97742.53;5071890;28;20406;-45
2023/09/20 03:28:09;;;;;;;0.00;0.00;;;;;;;16.58;100.00;97760.53;5072587;28;20051;-44
2023/09/20 03:30:40;;;;;;;0.80;0.28;;;;;;;16.55;100.00;97744.72;5072034;28;20087;-45
2023/09/20 03:33:10;;;;;;;2.15;0.30;;;;;;;16.52;100.00;97745.59;5071809;28;20052;-45
2023/09/20 03:35:40;;;;;;;0.38;0.10;;;;;;;16.50;100.00;97739.66;5071515;28;20517;-44
2023/09/20 03:38:08;;;;;;;2.00;0.30;;;;;;;16.48;100.00;97734.53;5071865;28;20078;-44
2023/09/20 03:40:37;;;;;;;2.13;0.30;;;;;;;16.48;100.00;97728.19;5071046;28;20051;-45
2023/09/20 03:43:07;;;;;;;2.15;0.68;;;;;;;16.47;100.00;97726.63;5071590;28;20052;-45
2023/09/20 03:45:34;;;;;;;2.78;0.38;;;;;;;16.46;100.00;97720.25;5071565;28;20040;-45
2023/09/20 03:48:01;;;;;;;2.20;1.27;;;;;;;16.43;100.00;97726.75;5071227;28;20052;-45
2023/09/20 03:50:28;;;;;;;0.90;0.25;;;;;;;16.42;100.00;97708.44;5070961;28;20486;-45
2023/09/20 03:52:55;;;;;;;0.85;0.30;;;;;;;16.39;100.00;97704.56;5071746;28;20044;-45
2023/09/20 03:55:26;;;;;;;2.58;0.40;;;;;;;16.38;100.00;97708.59;5071126;28;20498;-45
2023/09/20 03:57:53;;;;;;;1.97;0.30;;;;;;;16.36;100.00;97716.63;5071590;28;20048;-45
2023/09/20 04:00:28;;;;;;;3.08;0.50;;;;;;;16.35;100.00;97715.09;5071252;28;20343;-46
2023/09/20 04:02:56;;;;;;;2.55;0.38;;;;;;;16.33;100.00;97723.16;5071840;28;20079;-45
2023/09/20 04:05:24;;;;;;;1.52;0.47;;;;;;;16.32;100.00;97707.63;5058966;28;20036;-45
2023/09/20 04:08:11;;;;;;;0.77;0.22;;;;;;;16.31;100.00;97700.47;5070357;28;20072;-45
2023/09/20 04:10:39;;;;;;;1.10;0.30;;;;;;;16.30;100.00;97718.47;5071076;28;20387;-45
2023/09/20 04:13:07;;;;;;;2.80;0.20;;;;;;;16.29;100.00;97708.53;5052883;28;20132;-45
2023/09/20 04:15:34;;;;;;;0.98;0.32;;;;;;;16.29;100.00;97702.94;5071395;28;20049;-45
2023/09/20 04:18:08;;;;;;;2.00;1.05;;;;;;;16.30;100.00;97698.94;5071047;28;20559;-45
2023/09/20 04:20:35;;;;;;;0.65;0.30;;;;;;;16.30;100.00;97696.16;5071967;28;20044;-45
2023/09/20 04:23:03;;;;;;;4.35;0.50;;;;;;;16.29;100.00;97688.22;5063529;28;20059;-46
2023/09/20 04:25:30;;;;;;;3.00;0.40;;;;;;;16.29;100.00;97680.63;5070893;28;20049;-45
2023/09/20 04:27:57;;;;;;;3.00;0.60;;;;;;;16.28;100.00;97687.41;5070223;28;20044;-45
2023/09/20 04:30:24;;;;;;;5.60;0.75;;;;;;;16.26;100.00;97692.69;5071020;28;20044;-45
2023/09/20 04:32:51;;;;;;;4.43;1.08;;;;;;;16.26;100.00;97686.31;5069852;28;20048;-45
2023/09/20 04:35:18;;;;;;;4.18;0.45;;;;;;;16.25;100.00;97699.53;5052617;28;20044;-45
2023/09/20 04:37:45;;;;;;;4.70;0.60;;;;;;;16.25;100.00;97704.31;5071368;28;20061;-45
2023/09/20 04:40:13;;;;;;;3.00;0.70;;;;;;;16.23;100.00;97710.34;5071345;28;20106;-45
2023/09/20 04:42:41;;;;;;;5.18;0.70;;;;;;;16.23;100.00;97706.81;5064849;28;20508;-45
2023/09/20 04:45:12;;;;;;;3.78;0.80;;;;;;;16.22;100.00;97700.44;5070013;28;20140;-45
2023/09/20 04:47:39;;;;;;;3.03;0.85;;;;;;;16.22;100.00;97703.22;5070979;28;20052;-45
2023/09/20 04:50:07;;;;;;;3.75;0.98;;;;;;;16.19;100.00;97704.13;5071311;28;20076;-45
2023/09/20 04:52:34;;;;;;;7.85;1.20;;;;;;;16.18;100.00;97705.34;5070811;28;20119;-46
2023/09/20 04:55:01;;;;;;;4.00;0.60;;;;;;;16.17;100.00;97694.66;5071688;28;20041;-45
2023/09/20 04:57:28;;;;;;;2.85;1.00;;;;;;;16.14;100.00;97685.19;5070681;28;20047;-44
2023/09/20 04:59:55;;;;;;;3.72;0.90;;;;;;;16.13;100.00;97674.47;5070076;28;20059;-45
2023/09/20 05:02:22;;;;;;;5.15;0.80;;;;;;;16.10;100.00;97676.16;5052549;28;20206;-45
2023/09/20 05:04:50;;;;;;;4.15;0.90;;;;;;;16.09;100.00;97683.00;5070347;28;20048;-46
2023/09/20 05:07:18;;;;;;;3.00;0.45;;;;;;;16.07;100.00;97682.66;5070670;28;20036;-46
2023/09/20 05:09:45;;;;;;;2.67;0.50;;;;;;;16.05;100.00;97679.53;5070552;28;20044;-45
2023/09/20 05:12:12;;;;;;;3.40;0.70;;;;;;;16.05;100.00;97689.91;5071302;28;20440;-46
2023/09/20 05:14:39;;;;;;;3.05;0.75;;;;;;;16.01;100.00;97687.28;5052614;28;20386;-45
2023/09/20 05:17:06;;;;;;;4.07;0.68;;;;;;;16.01;100.00;97695.66;5070501;28;20067;-45
2023/09/20 05:19:33;;;;;;;2.13;0.47;;;;;;;15.99;100.00;97684.16;5069980;28;20557;-45
2023/09/20 05:22:00;;;;;;;1.52;0.43;;;;;;;16.00;100.00;97684.94;5056374;28;20051;-45
2023/09/20 05:24:28;;;;;;;2.95;0.47;;;;;;;15.97;100.00;97695.00;5070049;28;20401;-45
2023/09/20 05:26:54;;;;;;;2.25;0.45;;;;;;;15.96;100.00;97687.09;5073845;28;20060;-45
2023/09/20 05:29:21;;;;;;;2.72;0.60;;;;;;;15.96;100.00;97710.19;5074333;28;20115;-45
2023/09/20 05:31:49;;;;;;;4.28;0.50;;;;;;;15.96;100.00;97715.78;5072698;28;20044;-45
2023/09/20 05:34:17;;;;;;;3.67;0.60;;;;;;;15.99;100.00;97731.59;5073828;28;20127;-45
2023/09/20 05:36:45;;;;;;;3.17;0.70;;;;;;;15.95;100.00;97764.44;5056349;28;20070;-45
2023/09/20 05:39:12;;;;;;;2.33;1.30;;;;;;;15.82;99.88;97755.34;5073709;28;20120;-45
2023/09/20 05:41:40;;;;;;;4.93;0.98;;;;;;;15.74;99.10;97732.50;5073395;28;20147;-45
2023/09/20 05:44:07;;;;;;;5.28;0.70;;;;;;;15.64;98.00;97753.19;5074293;28;20044;-45
2023/09/20 05:46:34;;;;;;;5.00;1.00;;;;;;;15.53;97.51;97755.56;5056169;28;20068;-45
2023/09/20 05:49:02;;;;;;;5.20;0.98;;;;;;;15.43;96.96;97778.19;5073598;28;20098;-46
2023/09/20 05:51:30;;;;;;;6.45;1.25;;;;;;;15.31;96.25;97782.56;5074039;28;20044;-45
2023/09/20 05:53:57;;;;;;;6.72;1.13;;;;;;;15.19;95.32;97775.78;5055866;28;20040;-45
2023/09/20 05:56:25;;;;;;;7.85;1.20;;;;;;;15.11;95.13;97774.44;5073717;28;20044;-45
2023/09/20 05:58:53;;;;;;;4.82;0.98;;;;;;;15.03;94.89;97789.84;5072360;28;20135;-47
2023/09/20 06:01:23;;;;;;;4.65;1.30;;;;;;;14.97;94.86;97801.97;5073476;28;20060;-46
2023/09/20 06:03:56;;;;;;;8.15;2.35;;;;;;;14.90;94.57;97804.97;5060897;28;20106;-45
2023/09/20 06:06:23;;;;;;;7.05;1.55;;;;;;;14.83;94.44;97783.69;5071808;28;20452;-45
2023/09/20 06:08:50;;;;;;;5.22;1.10;;;;;;;14.74;94.04;97791.16;5073509;28;20095;-45
2023/09/20 06:11:18;;;;;;;15.63;1.92;;;;;;;14.67;93.62;97783.78;5073173;28;20055;-45
2023/09/20 06:13:46;;;;;;;9.90;1.85;;;;;;;14.63;93.49;97772.00;5073562;28;20127;-46
2023/09/20 06:16:13;;;;;;;9.15;1.25;;;;;;;14.56;93.06;97794.50;5073308;28;20119;-45
2023/09/20 06:18:42;;;;;;;4.70;1.00;;;;;;;14.52;92.48;97786.22;5073938;28;20048;-45
2023/09/20 06:21:31;;;;;;;7.82;1.40;;;;;;;14.48;92.23;97787.56;5062150;28;20044;-45
2023/09/20 06:23:59;;;;;;;8.38;1.83;;;;;;;14.43;91.84;97790.88;5065531;28;20052;-45
2023/09/20 06:26:27;;;;;;;8.68;1.30;;;;;;;14.40;91.71;97802.91;5072337;28;20048;-45
2023/09/20 06:28:54;;;;;;;8.30;1.30;;;;;;;14.37;91.29;97803.78;5072970;28;20079;-45
2023/09/20 06:31:21;;;;;;;9.10;1.40;;;;;;;14.34;91.11;97796.31;5072904;28;20040;-45
2023/09/20 06:33:48;;;;;;;1.83;0.73;;;;;;;14.31;90.97;97784.06;5072612;28;20052;-46
2023/09/20 06:36:22;;;;;;;4.95;1.60;;;;;;;14.29;90.63;97797.63;5072852;28;20044;-45
2023/09/20 06:38:49;;;;;;;7.93;2.47;;;;;;;14.26;90.31;97781.03;5072880;28;20106;-44
2023/09/20 06:41:17;;;;;;;9.50;1.05;;;;;;;14.26;90.33;97808.84;5072451;28;20080;-45
2023/09/20 06:43:44;;;;;;;7.07;1.10;;;;;;;14.25;90.17;97796.94;5055177;28;20144;-44
2023/09/20 06:46:11;;;;;;;7.10;2.08;;;;;;;14.24;89.96;97809.31;5072249;28;20048;-44
2023/09/20 06:48:38;;;;;;;7.93;1.30;;;;;;;14.23;90.02;97807.72;5070589;28;20413;-46
2023/09/20 06:51:06;;;;;;;8.32;1.08;;;;;;;14.22;89.91;97830.41;5061716;28;20506;-45
2023/09/20 06:53:33;;;;;;;8.55;0.90;;;;;;;14.19;89.41;97829.28;5071985;28;20043;-45
2023/09/20 06:55:59;;;;;;;7.53;2.10;;;;;;;14.21;89.39;97828.88;5072811;28;20050;-45
2023/09/20 06:58:28;;;;;;;6.68;1.48;;;;;;;14.22;89.42;97842.34;5072489;28;20040;-45
2023/09/20 07:00:58;;;;;;;5.88;1.10;;;;;;;14.24;89.28;97839.13;5067329;28;20422;-45
2023/09/20 07:03:25;;;;;;;4.38;0.80;;;;;;;14.30;89.47;97842.91;5071810;28;20401;-45
2023/09/20 07:05:52;;;;;;;8.63;1.42;;;;;;;14.33;89.32;97839.28;5062585;28;20114;-46
2023/09/20 07:08:21;;;;;;;5.03;1.13;;;;;;;14.36;89.32;97846.75;5069428;28;20041;-45
2023/09/20 07:10:50;;;;;;;9.35;1.92;;;;;;;14.34;88.91;97835.28;5068793;28;20055;-46
2023/09/20 07:13:19;;;;;;;4.72;1.45;;;;;;;14.35;88.92;97850.78;5072390;28;20047;-46
2023/09/20 07:15:47;;;;;;;5.18;1.10;;;;;;;14.34;88.80;97849.19;5072038;28;20079;-46
2023/09/20 07:18:17;;;;;;;6.40;1.65;;;;;;;14.33;88.43;97869.91;5068459;28;20478;-45
2023/09/20 07:20:44;;;;;;;11.15;1.20;;;;;;;14.31;88.25;97870.34;5064186;28;20140;-43
2023/09/20 07:23:13;;;;;;;4.70;0.95;;;;;;;14.33;88.54;97875.47;5061163;28;20032;-43
2023/09/20 07:25:42;;;;;;;6.18;1.05;;;;;;;14.30;88.08;97879.09;5071855;28;20135;-43
2023/09/20 07:28:10;;;;;;;8.70;1.63;;;;;;;14.29;87.96;97880.31;5072110;28;20049;-43
2023/09/20 07:30:44;;;;;;;7.07;1.25;;;;;;;14.31;88.38;97875.91;5071924;28;20056;-43
2023/09/20 07:33:23;;;;;;;3.63;1.05;;;;;;;14.33;87.99;97878.25;5071881;28;20494;-43
2023/09/20 07:36:01;;;;;;;7.88;1.92;;;;;;;14.34;87.88;97877.03;5060745;28;20040;-43
2023/09/20 07:38:29;;;;;;;11.90;2.25;;;;;;;14.34;87.85;97888.97;5071527;28;20048;-45
2023/09/20 07:41:13;;;;;;;9.60;1.00;;;;;;;14.35;87.99;97884.19;5070132;28;20068;-46
2023/09/20 07:43:47;;;;;;;8.75;1.25;;;;;;;14.37;88.04;97895.66;5071067;28;20057;-44
2023/09/20 07:46:15;;;;;;;7.00;1.48;;;;;;;14.34;87.86;97883.38;5071052;28;20074;-45
2023/09/20 07:48:50;;;;;;;4.57;0.93;;;;;;;14.35;87.92;97889.75;5072516;28;20436;-45
2023/09/20 07:51:29;;;;;;;6.00;1.55;;;;;;;14.36;87.70;97891.28;5074498;28;20075;-44
2023/09/20 07:53:56;;;;;;;4.30;1.45;;;;;;;14.33;87.55;97901.28;5058250;28;20040;-45
2023/09/20 07:56:24;;;;;;;4.13;0.80;;;;;;;14.31;87.54;97900.97;5070623;28;20029;-44
2023/09/20 07:58:53;;;;;;;4.72;0.90;;;;;;;14.27;87.47;97891.13;5070980;28;20048;-45
2023/09/20 08:01:23;;;;;;;4.05;0.68;;;;;;;14.23;87.56;97907.13;5069998;28;20057;-45
2023/09/20 08:03:52;;;;;;;5.35;0.90;;;;;;;14.22;87.52;97905.53;5065100;28;20071;-44
2023/09/20 08:06:23;;;;;;;6.05;2.10;;;;;;;14.19;87.85;97912.00;5067013;28;20052;-44
2023/09/20 08:09:04;;;;;;;5.93;0.88;;;;;;;14.20;87.91;97910.78;5070882;28;20060;-45
2023/09/20 08:11:32;;;;;;;3.78;0.70;;;;;;;14.20;87.82;97917.13;5070713;28;20509;-45
2023/09/20 08:14:06;;;;;;;5.15;0.60;;;;;;;14.24;87.75;97911.47;5052958;28;20040;-49
2023/09/20 08:16:42;;;;;;;4.80;0.77;;;;;;;14.34;87.72;97910.44;5070465;28;20395;-45
2023/09/20 08:19:47;;;;;;;6.55;0.75;;;;;;;14.43;87.43;97918.91;5068552;28;20053;-45
2023/09/20 08:22:17;;;;;;;4.25;0.93;;;;;;;14.50;86.93;97916.75;5062483;28;20063;-44
2023/09/20 09:00:46;;;;;;;7.95;0.60;;;;;;;15.44;86.00;97958.16;5072969;28;20048;-48
2023/09/20 09:03:15;;;;;;;1.73;0.77;;;;;;;15.56;85.34;97976.97;5071595;28;20055;-48
2023/09/20 09:05:43;;;;;;;2.63;0.45;;;;;;;15.68;84.68;97976.94;5071832;28;20082;-46
2023/09/20 09:08:10;;;;;;;7.45;0.95;;;;;;;16.13;84.69;97965.53;5071282;28;20083;-46
2023/09/20 09:10:37;;;;;;;4.97;1.25;;;;;;;16.66;82.71;97962.94;5072145;28;20152;-47
2023/09/20 09:13:04;;;;;;;2.42;0.60;;;;;;;16.91;81.59;97962.84;5074187;28;20044;-46
2023/09/20 09:15:31;;;;;;;5.13;1.15;;;;;;;17.36;80.50;97967.94;5073703;28;20498;-46
2023/09/20 09:17:58;;;;;;;4.15;0.70;;;;;;;18.01;78.60;97976.16;5073390;28;20037;-48
2023/09/20 09:20:28;;;;;;;3.80;0.80;;;;;;;18.34;76.76;97982.81;5072941;28;20372;-49
2023/09/20 09:22:57;;;;;;;4.57;0.98;;;;;;;18.55;75.52;97975.53;5067943;28;20068;-47
2023/09/20 09:25:30;;;;;;;4.78;1.20;;;;;;;18.63;74.58;97988.78;5056830;28;20577;-47
2023/09/20 09:27:59;;;;;;;4.07;0.63;;;;;;;18.98;73.34;97991.28;5072982;28;20090;-47
2023/09/20 09:30:26;;;;;;;1.20;0.60;;;;;;;19.39;72.07;97987.81;5073499;28;20033;-46
2023/09/20 09:32:53;;;;;;;4.53;0.80;;;;;;;19.39;70.73;97988.59;5071819;28;20517;-46
2023/09/20 09:35:20;;;;;;;6.32;0.68;;;;;;;19.35;70.15;98006.81;5072369;28;20361;-48
2023/09/20 09:38:02;;;;;;;6.22;0.90;;;;;;;19.24;69.96;97998.91;5069510;28;20163;-45
2023/09/20 09:40:29;;;;;;;3.75;0.50;;;;;;;19.41;68.75;98019.78;5055108;28;20056;-46
2023/09/20 09:43:11;;;;;;;4.05;0.60;;;;;;;19.34;68.69;98017.25;5073878;28;20041;-47
2023/09/20 09:45:38;;;;;;;3.55;0.50;;;;;;;19.16;67.13;98008.09;5073719;28;20048;-47
2023/09/20 09:48:06;;;;;;;4.88;0.45;;;;;;;18.79;67.41;98013.72;5073078;28;20571;-46
2023/09/20 09:50:38;;;;;;;5.03;0.70;;;;;;;18.70;68.09;98004.50;5070616;28;20041;-43
2023/09/20 09:53:08;;;;;;;4.43;0.52;;;;;;;18.75;67.29;98017.91;5070329;28;20055;-44
2023/09/20 09:55:38;;;;;;;2.60;1.60;;;;;;;19.10;66.65;98004.34;5071780;28;20845;-44
2023/09/20 09:58:08;;;;;;;2.80;0.52;;;;;;;19.61;65.13;98016.47;5072318;28;20045;-46
2023/09/20 10:00:39;;;;;;;5.68;0.70;;;;;;;19.78;64.52;98014.84;5068175;28;20491;-44
2023/09/20 10:03:32;;;;;;;2.13;0.68;;;;;;;19.91;63.81;98020.25;5068998;28;20133;-43
2023/09/20 10:06:21;;;;;;;7.45;0.65;;;;;;;20.01;63.53;98028.16;5057462;28;20477;-44
2023/09/20 10:08:53;;;;;;;5.10;0.60;;;;;;;20.15;62.27;98009.84;5061759;28;20045;-43
2023/09/20 10:11:22;;;;;;;3.05;0.77;;;;;;;20.11;61.21;98014.09;5072795;28;20102;-45
2023/09/20 10:13:51;;;;;;;4.40;0.95;;;;;;;20.02;61.12;98029.72;5073348;28;20055;-45
2023/09/20 10:16:19;;;;;;;5.43;0.75;;;;;;;20.03;60.89;98011.63;5057808;28;20064;-44
2023/09/20 10:18:56;;;;;;;4.75;0.70;;;;;;;19.76;61.47;98016.56;5082036;28;20040;-44
2023/09/20 10:21:30;;;;;;;5.70;0.88;;;;;;;19.69;61.18;98017.69;5043060;28;20044;-44
2023/09/20 10:24:04;;;;;;;3.30;0.70;;;;;;;19.84;61.28;98024.19;5051530;28;20052;-44
2023/09/20 10:26:34;;;;;;;;;;;;;;;19.77;61.20;98030.16;5071614;28;20143;-44
2023/09/20 10:29:26;;;;;;;4.00;0.40;;;;;;;19.85;60.43;98036.97;5070923;28;20352;-44
2023/09/20 10:32:13;;;;;;;3.08;0.70;;;;;;;19.59;60.08;98024.56;5064154;28;20524;-44
2023/09/20 10:35:00;;;;;;;2.10;0.57;;;;;;;19.30;60.99;98029.91;5067941;28;20551;-45
2023/09/20 10:37:27;;;;;;;4.13;0.77;;;;;;;19.18;60.64;98050.47;5072646;28;20521;-44
2023/09/20 10:39:57;;;;;;;4.72;0.50;;;;;;;19.20;60.45;98045.16;5067607;28;20067;-44
2023/09/20 10:42:26;;;;;;;2.42;0.47;;;;;;;19.24;59.92;98031.78;5067456;28;20040;-44
2023/09/20 10:44:59;;;;;;;4.30;0.63;;;;;;;19.32;59.18;98038.63;5073220;28;20048;-45
2023/09/20 10:47:26;;;;;;;;;;;;;;;19.26;59.51;98051.72;5073444;28;20367;-44
2023/09/20 10:49:56;;;;;;;3.00;0.52;;;;;;;19.21;59.35;98049.53;5071638;28;20435;-45
2023/09/20 10:52:56;;;;;;;2.28;1.10;;;;;;;18.98;59.66;98047.38;5085283;28;20051;-44
2023/09/20 10:55:23;;;;;;;2.75;0.40;;;;;;;18.85;59.86;98051.06;5071843;28;20490;-45
2023/09/20 10:57:50;;;;;;;1.95;0.47;;;;;;;18.75;60.65;98048.72;5054981;28;20094;-45
2023/09/20 11:00:30;;;;;;;4.35;1.60;;;;;;;18.65;61.21;98050.75;5072294;28;20572;-45
2023/09/20 11:02:57;;;;;;;3.72;0.60;;;;;;;18.39;61.66;98057.81;5069437;28;20545;-46
2023/09/20 11:05:26;;;;;;;6.97;1.90;;;;;;;18.15;61.95;98071.59;5059150;28;20037;-46
2023/09/20 11:07:55;;;;;;;4.30;0.65;;;;;;;17.97;62.87;98060.31;5072591;28;20163;-44
2023/09/20 11:10:23;;;;;;;6.00;1.33;;;;;;;17.88;63.28;98065.06;5072507;28;20068;-44
2023/09/20 11:12:55;;;;;;;4.63;1.25;;;;;;;17.83;63.52;98068.47;5071852;28;20037;-45
2023/09/20 11:15:23;;;;;;;1.98;0.73;;;;;;;17.71;63.79;98069.34;5071075;28;20405;-45
2023/09/20 11:17:51;;;;;;;2.03;1.17;;;;;;;17.66;64.27;98072.75;5066898;28;20044;-45
2023/09/20 11:20:18;;;;;;;5.05;1.15;;;;;;;17.62;64.95;98084.06;5065082;28;20056;-45
2023/09/20 11:22:45;;;;;;;11.70;0.85;;;;;;;17.53;64.99;98076.38;5066031;28;20041;-44
2023/09/20 11:25:12;;;;;;;3.20;0.60;;;;;;;17.41;64.71;98082.81;5072744;28;20047;-44
2023/09/20 11:27:39;;;;;;;4.20;0.75;;;;;;;17.31;64.94;98086.78;5070054;28;20075;-45
2023/09/20 11:30:08;;;;;;;2.80;0.63;;;;;;;17.28;64.95;98082.09;5070574;28;20052;-45
2023/09/20 11:32:38;;;;;;;4.30;0.50;;;;;;;17.33;65.51;98095.50;5069896;28;20133;-45
2023/09/20 11:35:07;;;;;;;2.22;0.50;;;;;;;17.43;65.50;98111.09;5071935;28;20465;-45
2023/09/20 11:37:38;;;;;;;2.53;0.75;;;;;;;17.43;65.19;98099.13;5070441;28;20072;-44
2023/09/20 11:40:06;;;;;;;6.13;0.60;;;;;;;17.39;65.04;98110.47;5071160;28;20510;-45
2023/09/20 11:42:36;;;;;;;3.10;0.60;;;;;;;17.30;65.28;98115.97;5066132;28;20045;-45
2023/09/20 11:45:05;;;;;;;5.90;2.30;;;;;;;17.26;65.63;98118.09;5070605;28;20577;-47
2023/09/20 11:47:52;;;;;;;2.10;0.60;;;;;;;17.25;65.89;98129.75;5065009;28;20040;-44
2023/09/20 11:50:22;;;;;;;3.63;0.45;;;;;;;17.24;66.02;98119.78;5053360;28;20051;-44
2023/09/20 11:52:49;;;;;;;2.88;0.52;;;;;;;17.18;65.89;98139.19;5071430;28;20060;-46
2023/09/20 11:55:19;;;;;;;4.28;0.70;;;;;;;17.06;65.98;98131.59;5071224;28;20094;-44
2023/09/20 11:57:47;;;;;;;6.70;0.80;;;;;;;16.95;66.42;98134.75;5071446;28;20147;-44
2023/09/20 12:00:16;;;;;;;3.38;0.63;;;;;;;16.92;66.85;98143.25;5071575;28;20063;-44
2023/09/20 12:02:44;;;;;;;6.15;2.50;;;;;;;16.81;66.93;98131.66;5071117;28;20080;-45
2023/09/20 12:05:12;;;;;;;2.45;0.60;;;;;;;16.72;66.77;98139.94;5063550;28;20138;-46
2023/09/20 12:07:39;;;;;;;1.85;0.65;;;;;;;16.67;67.24;98143.31;5065936;28;20506;-47
2023/09/20 12:10:06;;;;;;;2.20;0.60;;;;;;;16.84;67.54;98144.72;5068802;28;20048;-46
2023/09/20 12:12:34;;;;;;;3.22;0.40;;;;;;;16.96;67.00;98155.09;5069008;28;20123;-44
2023/09/20 12:15:03;;;;;;;4.10;0.70;;;;;;;17.05;66.92;98147.56;5069346;28;20067;-49
2023/09/20 12:17:30;;;;;;;2.42;0.88;;;;;;;17.11;67.05;98156.19;5070392;28;20052;-46
2023/09/20 12:19:57;;;;;;;8.25;0.90;;;;;;;17.09;66.48;98139.09;5066894;28;20088;-44